Time;durP1;ratioP1;P1;durP2;ratioP2;P2;SDS_P1;SDS_P2;PMS_P1;PMS_P2;Temp;Humidity;BMP_temperature;BMP_pressure;BME280_temperature;BME280_humidity;BME280_pressure;Samples;Min_cycle;Max_cycle;Signal;HPM_P1;HPM_P2
2021/06/29 00:00:16;;;;;;;7.23;6.53;;;;;;;-144.99;65.61;52130.13;5094622;28;20229;-57
2021/06/29 00:02:42;;;;;;;7.87;5.07;;;;;;;-144.99;65.62;52146.44;5086886;28;20213;-59
2021/06/29 00:05:09;;;;;;;5.60;4.40;;;;;;;-144.99;65.72;52158.66;5085025;28;20210;-57
2021/06/29 00:07:37;;;;;;;10.73;6.47;;;;;;;-144.99;65.78;52158.66;5093698;28;20272;-61
2021/06/29 00:10:07;;;;;;;8.30;5.33;;;;;;;-144.99;65.84;52148.47;5091794;28;20231;-61
2021/06/29 00:12:33;;;;;;;5.77;4.77;;;;;;;-144.99;65.88;52146.44;5090890;28;20232;-60
2021/06/29 00:15:00;;;;;;;8.33;5.03;;;;;;;-144.99;65.96;52134.22;5089932;28;20585;-60
2021/06/29 00:17:27;;;;;;;9.37;5.50;;;;;;;-144.99;66.00;52162.75;5091179;28;20200;-60
2021/06/29 00:19:53;;;;;;;8.30;6.80;;;;;;;-144.99;66.23;52101.59;5085996;28;20232;-60
2021/06/29 00:22:20;;;;;;;10.50;5.77;;;;;;;-144.99;66.27;52146.44;5086315;28;20214;-60
2021/06/29 00:24:47;;;;;;;5.70;5.00;;;;;;;-144.99;66.59;52170.91;5090724;28;20208;-60
2021/06/29 00:27:14;;;;;;;6.27;5.13;;;;;;;-144.99;66.75;52105.69;5086529;28;20215;-60
2021/06/29 00:29:40;;;;;;;5.57;4.67;;;;;;;-144.99;67.16;52128.09;5080935;28;20711;-60
2021/06/29 00:32:08;;;;;;;5.97;4.70;;;;;;;-144.99;67.22;52166.81;5087690;28;20684;-60
2021/06/29 00:34:34;;;;;;;7.80;6.10;;;;;;;-144.99;67.43;52121.97;5091255;28;20216;-60
2021/06/29 00:37:01;;;;;;;7.07;5.93;;;;;;;-144.99;67.56;52124.03;5089172;28;20227;-60
2021/06/29 00:39:27;;;;;;;5.67;4.80;;;;;;;-144.99;67.78;52121.97;5092486;28;20590;-60
2021/06/29 00:41:55;;;;;;;8.00;6.37;;;;;;;-144.99;67.99;52158.66;5094997;28;20204;-60
2021/06/29 00:44:23;;;;;;;6.80;5.80;;;;;;;-144.99;68.02;52142.38;5099663;28;20215;-57
2021/06/29 00:46:51;;;;;;;6.93;5.00;;;;;;;-144.99;67.93;52158.66;5101997;28;20220;-59
2021/06/29 00:49:19;;;;;;;7.73;5.93;;;;;;;-144.99;68.04;52172.94;5087457;28;20721;-59
2021/06/29 00:51:46;;;;;;;6.67;5.93;;;;;;;-144.99;68.15;52179.06;5091511;28;20205;-59
2021/06/29 00:54:14;;;;;;;6.83;5.47;;;;;;;-144.99;68.41;52160.72;5086163;28;20630;-59
2021/06/29 00:56:41;;;;;;;6.50;4.97;;;;;;;-144.99;68.43;52162.75;5085365;28;20700;-59
2021/06/29 00:59:09;;;;;;;7.83;5.97;;;;;;;-144.99;68.59;52154.59;5088385;28;20235;-60
2021/06/29 01:01:36;;;;;;;8.53;6.53;;;;;;;-144.99;68.85;52134.22;5091787;28;20564;-59
2021/06/29 01:04:06;;;;;;;8.33;6.87;;;;;;;-144.99;69.07;52162.75;5092800;28;20525;-59
2021/06/29 01:06:33;;;;;;;7.57;6.23;;;;;;;-144.99;69.16;52146.44;5087329;28;20239;-59
2021/06/29 01:09:01;;;;;;;14.10;10.40;;;;;;;-144.99;69.32;52109.75;5086977;28;20220;-61
2021/06/29 01:11:27;;;;;;;11.30;8.40;;;;;;;-144.99;69.50;52162.75;5088793;28;20677;-60
2021/06/29 01:13:54;;;;;;;15.43;11.27;;;;;;;-144.99;69.72;52191.28;5092192;28;20207;-60
2021/06/29 01:16:22;;;;;;;14.00;9.07;;;;;;;-144.99;69.69;52130.13;5092705;28;20212;-63
2021/06/29 01:18:49;;;;;;;12.03;10.37;;;;;;;-144.99;69.79;52146.44;5090679;28;20224;-60
2021/06/29 01:21:19;;;;;;;7.37;6.07;;;;;;;-144.99;69.75;52124.03;5085471;28;20703;-59
2021/06/29 01:23:50;;;;;;;12.33;7.90;;;;;;;-144.99;69.89;52146.44;5087793;28;20282;-59
2021/06/29 01:26:20;;;;;;;14.37;9.90;;;;;;;-144.99;70.37;52138.28;5088941;28;20231;-58
2021/06/29 01:28:55;;;;;;;14.07;10.07;;;;;;;-144.99;70.32;52142.38;5082490;28;20228;-59
2021/06/29 01:31:21;;;;;;;20.93;11.43;;;;;;;-144.99;70.39;52146.44;5086444;28;20551;-59
2021/06/29 01:33:49;;;;;;;13.73;9.17;;;;;;;-144.99;70.55;52130.13;5090680;28;20220;-59
2021/06/29 01:36:17;;;;;;;13.30;9.60;;;;;;;-144.99;70.68;52142.38;5089162;28;20204;-59
2021/06/29 01:38:44;;;;;;;14.47;8.63;;;;;;;-144.99;70.76;52142.38;5091353;28;20230;-59
2021/06/29 01:41:11;;;;;;;14.20;11.03;;;;;;;-144.99;70.73;52166.81;5092704;28;20203;-59
2021/06/29 01:43:42;;;;;;;13.90;8.60;;;;;;;-144.99;70.87;52183.13;5092582;28;20675;-59
2021/06/29 01:46:09;;;;;;;9.60;7.73;;;;;;;-144.99;71.07;52121.97;5085280;28;20228;-59
2021/06/29 01:48:35;;;;;;;10.60;7.67;;;;;;;-144.99;71.08;52162.75;5084910;28;20235;-59
2021/06/29 01:51:02;;;;;;;9.70;7.73;;;;;;;-144.99;71.18;52138.28;5090190;28;20239;-58
2021/06/29 01:53:30;;;;;;;11.00;7.17;;;;;;;-144.99;71.22;52134.22;5091088;28;20211;-59
2021/06/29 01:55:56;;;;;;;8.90;7.93;;;;;;;-144.99;71.25;52158.66;5086508;28;20218;-59
2021/06/29 01:58:25;;;;;;;7.87;6.67;;;;;;;-144.99;71.41;52170.91;5085609;28;20222;-58
2021/06/29 02:00:53;;;;;;;8.93;7.70;;;;;;;-144.99;71.67;52185.16;5082212;28;20208;-57
2021/06/29 02:03:19;;;;;;;15.20;12.70;;;;;;;-144.99;71.85;52134.22;5097979;22;20549;-70
2021/06/29 02:05:46;;;;;;;16.33;11.40;;;;;;;-144.99;72.21;52154.59;5076459;28;20214;-70
2021/06/29 02:08:13;;;;;;;10.63;8.10;;;;;;;-144.99;72.31;52150.53;5072171;28;20215;-74
2021/06/29 02:10:41;;;;;;;10.20;7.77;;;;;;;-144.99;72.37;52150.53;5072745;28;20539;-72
2021/06/29 02:13:08;;;;;;;9.97;8.80;;;;;;;-144.99;72.39;52160.72;5065768;28;20207;-72
2021/06/29 02:15:34;;;;;;;10.47;7.83;;;;;;;-144.99;72.54;52187.19;5074182;28;20215;-72
2021/06/29 02:18:01;;;;;;;13.47;8.50;;;;;;;-144.99;72.73;52154.59;5070905;28;20206;-64
2021/06/29 02:20:28;;;;;;;16.50;9.67;;;;;;;-144.99;72.63;52179.06;5066050;28;20576;-64
2021/06/29 02:22:54;;;;;;;14.07;9.33;;;;;;;-144.99;72.60;52187.19;5073137;28;20217;-64
2021/06/29 02:25:21;;;;;;;11.00;8.43;;;;;;;-144.99;72.78;52130.13;5074036;28;20219;-64
2021/06/29 02:27:49;;;;;;;11.23;8.93;;;;;;;-144.99;73.10;52146.44;5072561;28;20229;-66
2021/06/29 02:30:16;;;;;;;11.03;7.93;;;;;;;-144.99;73.09;52152.56;5073122;28;20267;-67
2021/06/29 02:33:13;;;;;;;9.87;8.17;;;;;;;-144.99;73.14;52166.81;5004155;28;20199;-66
2021/06/29 02:35:40;;;;;;;13.97;10.37;;;;;;;-144.99;73.42;52154.59;5056957;28;20234;-71
2021/06/29 02:38:07;;;;;;;17.13;10.07;;;;;;;-144.99;73.50;52121.97;5075352;28;20223;-71
2021/06/29 02:40:33;;;;;;;13.80;12.00;;;;;;;-144.99;73.92;52166.81;5071314;28;20209;-73
2021/06/29 02:43:02;;;;;;;17.37;15.67;;;;;;;-144.99;74.08;52150.53;5074833;28;20199;-72
2021/06/29 02:45:29;;;;;;;15.33;14.13;;;;;;;-144.99;74.31;52142.38;5074929;28;20225;-72
2021/06/29 02:47:57;;;;;;;12.33;11.13;;;;;;;-144.99;74.35;52156.63;5078672;28;20221;-72
2021/06/29 02:50:23;;;;;;;13.80;12.50;;;;;;;-144.99;74.51;52191.28;5071296;28;20463;-73
2021/06/29 02:52:50;;;;;;;17.03;15.70;;;;;;;-144.99;74.69;52162.75;5073933;28;20332;-75
2021/06/29 02:55:17;;;;;;;10.33;9.37;;;;;;;-144.99;74.90;52166.81;5081771;28;20412;-73
2021/06/29 02:57:45;;;;;;;14.63;13.53;;;;;;;-144.99;75.21;52174.97;5077988;28;20229;-73
2021/06/29 03:00:20;;;;;;;11.10;10.20;;;;;;;-144.99;75.49;52189.25;5074794;28;20231;-73
2021/06/29 03:02:47;;;;;;;14.37;9.50;;;;;;;-144.99;75.31;52174.97;5070062;28;20221;-73
2021/06/29 03:05:15;;;;;;;8.83;7.80;;;;;;;-144.99;75.26;52179.06;5075155;28;20718;-73
2021/06/29 03:07:42;;;;;;;12.33;8.77;;;;;;;-144.99;75.30;52166.81;5075534;28;20481;-73
2021/06/29 03:10:10;;;;;;;8.87;7.80;;;;;;;-144.99;75.26;52150.53;5070252;28;20227;-73
2021/06/29 03:12:37;;;;;;;9.33;7.90;;;;;;;-144.99;75.14;52134.22;5070795;28;20309;-71
2021/06/29 03:15:06;;;;;;;10.47;9.37;;;;;;;-144.99;75.25;52166.81;5068015;28;20215;-68
2021/06/29 03:17:34;;;;;;;11.03;9.83;;;;;;;-144.99;75.36;52162.75;5068626;28;20297;-67
2021/06/29 03:20:01;;;;;;;10.93;8.13;;;;;;;-144.99;75.29;52191.28;5069668;28;20241;-69
2021/06/29 03:22:28;;;;;;;11.20;8.20;;;;;;;-144.99;75.28;52164.78;5071439;28;20582;-66
2021/06/29 03:24:54;;;;;;;12.17;9.13;;;;;;;-144.99;75.26;52162.75;5073442;28;20207;-65
2021/06/29 03:27:21;;;;;;;11.57;10.47;;;;;;;-144.99;75.26;52146.44;5069054;28;20245;-65
2021/06/29 03:29:48;;;;;;;9.70;7.77;;;;;;;-144.99;75.31;52156.63;5075727;28;20226;-66
2021/06/29 03:32:14;;;;;;;11.60;10.40;;;;;;;-144.99;75.18;52140.31;5075161;28;20642;-65
2021/06/29 03:34:42;;;;;;;14.77;9.10;;;;;;;-144.99;75.33;52162.75;5077752;28;20207;-66
2021/06/29 03:37:09;;;;;;;12.77;8.70;;;;;;;-144.99;75.52;52183.13;5080536;28;20210;-66
2021/06/29 03:39:36;;;;;;;9.57;8.50;;;;;;;-144.99;75.56;52154.59;5076615;28;20564;-65
2021/06/29 03:42:03;;;;;;;16.10;10.67;;;;;;;-144.99;75.71;52134.22;5077890;28;20203;-65
2021/06/29 03:44:30;;;;;;;13.43;10.67;;;;;;;-144.99;75.69;52126.06;5075975;28;20207;-70
2021/06/29 03:46:56;;;;;;;10.20;8.43;;;;;;;-144.99;75.54;52152.56;5075913;28;20723;-69
2021/06/29 03:49:23;;;;;;;9.43;8.50;;;;;;;-144.99;75.66;52162.75;5075935;28;20229;-69
2021/06/29 03:51:53;;;;;;;12.03;9.40;;;;;;;-144.99;75.75;52154.59;5072249;28;20687;-70
2021/06/29 03:54:20;;;;;;;11.20;10.03;;;;;;;-144.99;75.81;52172.94;5076854;28;20226;-70
2021/06/29 03:56:46;;;;;;;17.80;16.40;;;;;;;-144.99;75.88;52150.53;5081349;28;20195;-62
2021/06/29 03:59:13;;;;;;;26.10;24.20;;;;;;;-144.99;75.83;52154.59;5077713;28;20226;-70
2021/06/29 04:01:40;;;;;;;21.83;20.33;;;;;;;-144.99;76.07;52142.38;5077804;28;20207;-70
2021/06/29 04:04:06;;;;;;;45.00;42.77;;;;;;;-144.99;76.16;52172.94;5080820;28;20527;-70
2021/06/29 04:06:35;;;;;;;14.80;13.80;;;;;;;-144.99;76.46;52138.28;5067317;28;20237;-70
2021/06/29 04:09:05;;;;;;;12.27;11.23;;;;;;;-144.99;76.67;52174.97;5075965;28;20219;-70
2021/06/29 04:11:31;;;;;;;18.57;17.27;;;;;;;-144.99;76.82;52183.13;5075048;28;20696;-69
2021/06/29 04:13:58;;;;;;;14.07;12.70;;;;;;;-144.99;77.30;52138.28;5078742;28;20752;-70
2021/06/29 04:16:25;;;;;;;11.10;10.13;;;;;;;-144.99;77.35;52134.22;5078346;28;20304;-67
2021/06/29 04:18:51;;;;;;;31.53;29.73;;;;;;;-144.99;77.52;52156.63;5076499;28;20249;-70
2021/06/29 04:21:18;;;;;;;29.17;27.50;;;;;;;-144.99;77.55;52140.31;5076404;28;20203;-71
2021/06/29 04:23:45;;;;;;;30.17;28.53;;;;;;;-144.99;77.49;52162.75;5078490;28;20321;-71
2021/06/29 04:26:16;;;;;;;10.37;7.90;;;;;;;-144.99;77.56;52117.91;5071541;28;20653;-71
2021/06/29 04:28:43;;;;;;;10.47;8.37;;;;;;;-144.99;77.58;52121.97;5077399;28;20254;-71
2021/06/29 04:31:09;;;;;;;10.57;7.97;;;;;;;-144.99;77.56;52203.50;5072514;28;20207;-70
2021/06/29 04:33:36;;;;;;;8.87;7.97;;;;;;;-144.99;77.66;52128.09;5081123;28;20253;-70
2021/06/29 04:36:03;;;;;;;9.13;7.93;;;;;;;-144.99;77.60;52146.44;5077521;28;20211;-71
2021/06/29 04:38:30;;;;;;;8.57;7.47;;;;;;;-144.99;77.63;52154.59;5074096;28;20215;-70
2021/06/29 04:40:56;;;;;;;10.57;9.17;;;;;;;-144.99;77.61;52166.81;5078480;28;20526;-71
2021/06/29 04:43:24;;;;;;;8.97;7.87;;;;;;;-144.99;77.67;52126.06;5082733;28;20417;-71
2021/06/29 04:45:51;;;;;;;8.30;7.40;;;;;;;-144.99;78.57;52146.44;5076640;28;20301;-70
2021/06/29 04:48:17;;;;;;;9.33;8.37;;;;;;;-144.99;78.73;52109.75;5078772;28;20237;-71
2021/06/29 04:50:45;;;;;;;10.60;8.07;;;;;;;-144.99;78.57;52121.97;5080155;28;20214;-71
2021/06/29 04:53:11;;;;;;;10.80;9.27;;;;;;;-144.99;78.66;52170.91;5071739;28;20199;-71
2021/06/29 04:55:38;;;;;;;10.63;8.90;;;;;;;-144.99;78.77;52158.66;5070717;28;20280;-72
2021/06/29 04:58:05;;;;;;;12.47;9.67;;;;;;;-144.99;78.98;52156.63;5078257;28;20286;-67
2021/06/29 05:00:33;;;;;;;11.20;10.10;;;;;;;-144.99;79.69;52130.13;5076033;28;20203;-68
2021/06/29 05:02:59;;;;;;;22.63;20.93;;;;;;;-144.99;79.78;52150.53;5071278;28;20208;-68
2021/06/29 05:05:26;;;;;;;19.80;18.13;;;;;;;-144.99;80.18;52146.44;5080326;28;20215;-67
2021/06/29 05:07:54;;;;;;;36.33;33.93;;;;;;;-144.99;80.22;52170.91;5077254;28;20235;-68
2021/06/29 05:10:27;;;;;;;39.01;36.99;;;;;;;-144.99;80.21;52150.53;4596316;28;10269735;-70
2021/06/29 05:12:54;;;;;;;19.90;18.47;;;;;;;-144.99;80.24;52150.53;4721578;28;9999869;-67
2021/06/29 05:15:21;;;;;;;15.33;14.13;;;;;;;-144.99;80.19;52146.44;5072613;28;20203;-70
2021/06/29 05:17:48;;;;;;;20.97;19.43;;;;;;;-144.99;80.06;52158.66;5074792;28;20195;-70
2021/06/29 05:20:15;;;;;;;47.13;44.87;;;;;;;-144.99;79.70;52113.84;5075110;28;20235;-70
2021/06/29 05:22:42;;;;;;;45.40;43.27;;;;;;;-144.99;79.72;52140.31;5073413;28;21832;-71
2021/06/29 05:25:10;;;;;;;77.37;74.37;;;;;;;-144.99;79.97;52134.22;5073563;28;20664;-71
2021/06/29 05:27:40;;;;;;;56.50;54.00;;;;;;;-144.99;79.68;52117.91;5070115;28;20681;-70
2021/06/29 05:30:08;;;;;;;85.33;81.53;;;;;;;-144.99;79.95;52142.38;5071230;28;20219;-71
2021/06/29 05:32:37;;;;;;;32.70;30.87;;;;;;;-144.99;80.18;52132.19;5077632;28;20218;-72
2021/06/29 05:35:07;;;;;;;57.17;54.33;;;;;;;-144.99;80.19;52146.44;5075735;28;20220;-72
2021/06/29 05:37:34;;;;;;;125.33;120.73;;;;;;;-144.99;79.95;52146.44;5065333;28;20224;-71
2021/06/29 05:40:01;;;;;;;69.13;66.37;;;;;;;-144.99;80.31;52154.59;5071889;28;20465;-70
2021/06/29 05:42:28;;;;;;;112.53;108.13;;;;;;;-144.99;80.82;52134.22;5075617;28;20208;-71
2021/06/29 05:44:54;;;;;;;37.87;35.70;;;;;;;-144.99;80.99;52152.56;5075432;28;20262;-71
2021/06/29 05:47:22;;;;;;;35.73;33.83;;;;;;;-144.99;81.10;52085.31;5068786;28;20989;-71
2021/06/29 05:49:49;;;;;;;33.53;31.83;;;;;;;-144.99;80.80;52113.84;5074213;28;20232;-71
2021/06/29 05:52:18;;;;;;;136.97;131.80;;;;;;;-144.99;80.69;52132.19;5064131;28;20204;-71
2021/06/29 05:54:44;;;;;;;183.13;176.83;;;;;;;-144.99;80.78;52146.44;5065393;28;20216;-70
2021/06/29 05:57:12;;;;;;;285.50;275.70;;;;;;;-144.99;80.70;52093.44;5072594;28;20216;-71
2021/06/29 05:59:39;;;;;;;374.03;360.53;;;;;;;-144.99;80.39;52107.72;5069874;28;20231;-75
2021/06/29 06:02:06;;;;;;;247.90;239.10;;;;;;;-144.99;79.98;52109.75;5077773;28;20204;-71
2021/06/29 06:04:35;;;;;;;50.47;48.17;;;;;;;-144.99;80.11;52109.75;5075289;28;20261;-71
2021/06/29 06:07:01;;;;;;;36.70;34.37;;;;;;;-144.99;79.30;52128.09;5067979;28;21868;-71
2021/06/29 06:09:29;;;;;;;139.27;134.00;;;;;;;-144.99;78.67;52119.94;5073592;28;20228;-71
2021/06/29 06:11:56;;;;;;;252.47;243.73;;;;;;;-144.99;78.35;52056.78;5072721;28;20218;-70
2021/06/29 06:14:22;;;;;;;295.60;285.20;;;;;;;-144.99;78.19;52097.53;5069374;28;20216;-71
2021/06/29 06:16:49;;;;;;;370.50;357.00;;;;;;;-144.99;78.23;52058.81;5071873;28;20213;-71
2021/06/29 06:19:16;;;;;;;332.20;320.47;;;;;;;-144.99;78.36;52085.31;5067825;28;20227;-72
2021/06/29 06:21:43;;;;;;;493.70;472.83;;;;;;;-144.99;77.94;52128.09;5074637;28;20217;-72
2021/06/29 06:24:10;;;;;;;490.07;469.07;;;;;;;-144.99;77.63;52121.97;5074146;28;20295;-71
2021/06/29 06:26:37;;;;;;;496.53;475.03;;;;;;;-144.99;77.29;52109.75;5073639;28;20226;-72
2021/06/29 06:29:04;;;;;;;483.67;463.27;;;;;;;-144.99;76.79;52036.38;5063310;28;20234;-71
2021/06/29 06:31:31;;;;;;;503.50;481.43;;;;;;;-144.99;76.65;52097.53;5070440;28;20655;-70
2021/06/29 06:33:58;;;;;;;390.40;375.57;;;;;;;-144.99;76.61;52105.69;5072196;28;20220;-71
2021/06/29 06:36:24;;;;;;;501.40;479.60;;;;;;;-144.99;76.37;52126.06;5072340;28;20309;-72
2021/06/29 06:38:51;;;;;;;453.40;434.97;;;;;;;-144.99;76.40;52138.28;5069406;28;20251;-72
2021/06/29 06:41:17;;;;;;;526.80;502.33;;;;;;;-144.99;76.54;52097.53;5069663;28;20208;-72
2021/06/29 06:43:46;;;;;;;522.50;498.57;;;;;;;-144.99;76.56;52081.22;5071273;28;20236;-72
2021/06/29 06:46:13;;;;;;;487.07;464.90;;;;;;;-144.99;76.26;52093.44;5064656;28;20221;-71
2021/06/29 06:48:42;;;;;;;552.43;525.47;;;;;;;-144.99;76.17;52091.41;5062456;28;20230;-72
2021/06/29 06:51:09;;;;;;;501.83;478.30;;;;;;;-144.99;75.88;52089.38;5066319;28;20214;-72
2021/06/29 06:53:37;;;;;;;499.17;476.27;;;;;;;-144.99;75.55;52111.78;5065450;28;20604;-73
2021/06/29 06:56:04;;;;;;;319.17;304.73;;;;;;;-144.99;74.77;52097.53;5070353;28;20240;-72
2021/06/29 06:58:30;;;;;;;359.50;344.23;;;;;;;-144.99;74.68;52117.91;5068684;28;20237;-72
2021/06/29 07:00:58;;;;;;;430.10;410.83;;;;;;;-144.99;74.22;52079.19;5070897;28;20668;-72
2021/06/29 07:03:25;;;;;;;342.53;328.30;;;;;;;-144.99;73.72;52081.22;5070930;28;20219;-73
2021/06/29 07:05:52;;;;;;;240.17;230.33;;;;;;;-144.99;73.64;52089.38;5066983;28;20706;-73
2021/06/29 07:08:18;;;;;;;263.97;253.60;;;;;;;-144.99;73.88;52105.69;5066843;28;20231;-70
2021/06/29 07:10:45;;;;;;;238.13;229.40;;;;;;;-144.99;73.97;52097.53;5074227;28;20583;-70
2021/06/29 07:13:12;;;;;;;331.50;318.83;;;;;;;-144.99;73.89;52089.38;5072711;28;20665;-70
2021/06/29 07:15:39;;;;;;;236.73;228.50;;;;;;;-144.99;73.24;52115.88;5060583;28;20235;-70
2021/06/29 07:18:07;;;;;;;400.10;384.87;;;;;;;-144.99;73.22;52101.59;5072291;28;20205;-70
2021/06/29 07:20:34;;;;;;;404.90;389.60;;;;;;;-144.99;72.35;52075.09;5070451;28;20212;-70
2021/06/29 07:23:00;;;;;;;343.83;331.67;;;;;;;-144.99;71.95;52081.22;5070192;28;20215;-69
2021/06/29 07:25:27;;;;;;;382.17;368.27;;;;;;;-144.99;72.44;52103.66;5071644;28;20204;-69
2021/06/29 07:27:53;;;;;;;324.90;313.43;;;;;;;-144.99;71.60;52069.00;5067107;28;20235;-70
2021/06/29 07:30:20;;;;;;;435.70;418.77;;;;;;;-144.99;71.90;52126.06;5071160;28;20466;-69
2021/06/29 07:32:47;;;;;;;322.90;311.07;;;;;;;-144.99;72.07;52097.53;5069931;28;20224;-69
2021/06/29 07:35:15;;;;;;;91.90;88.13;;;;;;;-144.99;71.60;52093.44;5066859;28;20238;-70
2021/06/29 07:37:42;;;;;;;337.37;325.50;;;;;;;-144.99;71.40;52105.69;5060895;28;20208;-70
2021/06/29 07:40:09;;;;;;;278.27;268.77;;;;;;;-144.99;71.51;52075.09;5064574;28;20258;-71
2021/06/29 07:42:36;;;;;;;325.23;313.60;;;;;;;-144.99;71.55;52075.09;5064369;28;20219;-70
2021/06/29 07:45:04;;;;;;;238.57;230.53;;;;;;;-144.99;71.81;52089.38;5064778;28;20228;-70
2021/06/29 07:47:30;;;;;;;308.10;297.20;;;;;;;-144.99;71.24;52079.19;5051056;28;20213;-70
2021/06/29 07:49:57;;;;;;;141.77;136.10;;;;;;;-144.99;71.16;52075.09;5060454;28;20427;-70
2021/06/29 07:52:25;;;;;;;284.33;274.43;;;;;;;-144.99;70.45;52121.97;5059903;28;20201;-70
2021/06/29 07:54:52;;;;;;;191.57;184.93;;;;;;;-144.99;71.33;52093.44;5056859;28;20208;-70
2021/06/29 07:57:18;;;;;;;335.20;323.40;;;;;;;-144.99;71.22;52060.84;5060464;28;20197;-70
2021/06/29 07:59:45;;;;;;;438.67;421.17;;;;;;;-144.99;71.10;52101.59;5060736;28;20843;-70
2021/06/29 08:02:11;;;;;;;431.47;414.77;;;;;;;-144.99;70.76;52069.00;5059302;28;20213;-71
2021/06/29 08:04:38;;;;;;;441.20;423.80;;;;;;;-144.99;70.23;52126.06;5060130;28;20214;-70
2021/06/29 08:07:05;;;;;;;519.10;494.93;;;;;;;-144.99;70.01;52052.69;5059701;28;20531;-70
2021/06/29 08:09:33;;;;;;;591.23;562.13;;;;;;;-144.99;69.07;52020.09;5060066;28;20322;-70
2021/06/29 08:11:59;;;;;;;513.00;490.37;;;;;;;-144.99;69.78;52077.16;5056674;28;20218;-69
2021/06/29 08:14:26;;;;;;;402.37;386.77;;;;;;;-144.99;69.29;52069.00;5060859;28;20198;-70
2021/06/29 08:16:53;;;;;;;386.83;371.90;;;;;;;-144.99;68.35;52060.84;5060470;28;20672;-70
2021/06/29 08:19:20;;;;;;;89.93;86.10;;;;;;;-144.99;66.98;52048.63;5059905;28;20223;-70
2021/06/29 08:21:46;;;;;;;42.40;40.30;;;;;;;-144.99;66.71;52069.00;5064004;28;20214;-70
2021/06/29 08:24:13;;;;;;;111.23;107.03;;;;;;;-144.99;66.82;52036.38;5065853;28;20651;-71
2021/06/29 08:26:41;;;;;;;80.77;77.57;;;;;;;-144.99;66.33;52032.31;5065532;28;20210;-70
2021/06/29 08:29:10;;;;;;;78.70;75.47;;;;;;;-144.99;65.20;52032.31;5065213;28;20681;-70
2021/06/29 08:31:38;;;;;;;74.93;71.63;;;;;;;-144.99;62.36;52036.38;5064453;28;20215;-70
2021/06/29 08:34:04;;;;;;;137.03;132.20;;;;;;;-144.99;62.00;52036.38;5064135;28;20339;-71
2021/06/29 08:36:31;;;;;;;33.37;31.53;;;;;;;-144.99;62.22;52028.22;5062915;28;20377;-71
2021/06/29 08:38:58;;;;;;;81.73;78.63;;;;;;;-144.99;61.29;52036.38;5063422;28;20520;-70
2021/06/29 08:41:25;;;;;;;54.37;52.13;;;;;;;-144.99;61.67;52024.16;5063645;28;20207;-71
2021/06/29 08:43:53;;;;;;;92.83;89.40;;;;;;;-144.99;61.23;52020.09;5062749;28;20331;-71
2021/06/29 08:46:20;;;;;;;77.80;74.87;;;;;;;-144.99;60.96;51991.56;5062571;28;20208;-70
2021/06/29 08:48:46;;;;;;;42.17;39.97;;;;;;;-144.99;60.23;52032.31;5063378;28;20246;-70
2021/06/29 08:51:15;;;;;;;122.07;117.33;;;;;;;-144.99;59.22;52016.00;5062455;28;20200;-70
2021/06/29 08:53:41;;;;;;;248.47;240.17;;;;;;;-144.99;58.38;52048.63;5063008;28;20207;-71
2021/06/29 08:56:14;;;;;;;86.13;82.80;;;;;;;-144.99;58.34;52007.84;5064051;28;20215;-72
2021/06/29 08:58:41;;;;;;;130.33;125.80;;;;;;;-144.99;59.19;52036.38;5063570;28;20631;-71
2021/06/29 09:01:09;;;;;;;108.63;104.70;;;;;;;-144.99;59.59;52016.00;5063243;28;20208;-70
2021/06/29 09:03:36;;;;;;;36.73;35.17;;;;;;;-144.99;59.54;51991.56;5063859;28;20218;-70
2021/06/29 09:06:03;;;;;;;19.63;18.60;;;;;;;-144.99;58.16;51997.66;5063878;28;20223;-70
2021/06/29 09:08:38;;;;;;;123.23;118.63;;;;;;;-144.99;58.13;52020.09;5062366;28;20713;-70
2021/06/29 09:11:13;;;;;;;171.83;165.90;;;;;;;-144.99;57.96;52028.22;5060553;28;20495;-71
2021/06/29 09:13:42;;;;;;;135.67;131.13;;;;;;;-144.99;57.46;52038.44;5060511;28;20294;-70
2021/06/29 09:16:10;;;;;;;200.23;193.40;;;;;;;-144.99;56.99;52020.09;5063334;28;20217;-71
2021/06/29 09:18:40;;;;;;;305.00;294.30;;;;;;;-144.99;57.77;52105.69;5063409;28;20559;-71
2021/06/29 09:21:08;;;;;;;221.03;213.33;;;;;;;-144.99;58.25;52044.53;5060484;28;20658;-71
2021/06/29 09:23:37;;;;;;;219.20;211.70;;;;;;;-144.99;58.68;52044.53;5063559;28;20217;-70
2021/06/29 09:26:05;;;;;;;296.20;285.77;;;;;;;-144.99;58.67;52081.22;5059941;28;20205;-71
2021/06/29 09:28:35;;;;;;;238.10;230.07;;;;;;;-144.99;59.57;52060.84;5062484;28;20732;-71
2021/06/29 09:31:06;;;;;;;278.80;269.00;;;;;;;-144.99;60.34;52052.69;5062221;28;20571;-70
2021/06/29 09:33:36;;;;;;;298.10;287.80;;;;;;;-144.99;60.24;52083.25;5062415;28;20623;-70
2021/06/29 09:36:05;;;;;;;111.53;107.33;;;;;;;-144.99;60.66;52056.78;5062461;28;20228;-71
2021/06/29 09:38:34;;;;;;;151.17;146.13;;;;;;;-144.99;61.52;52077.16;5062430;28;20717;-71
2021/06/29 09:41:05;;;;;;;254.90;246.40;;;;;;;-144.99;61.89;52064.91;5062421;28;20528;-71
2021/06/29 09:43:34;;;;;;;107.83;103.97;;;;;;;-144.99;62.18;52073.06;5061516;28;21596;-70
2021/06/29 09:46:03;;;;;;;321.60;310.27;;;;;;;-144.99;62.24;52081.22;5061932;28;20206;-70
2021/06/29 09:48:38;;;;;;;255.47;246.77;;;;;;;-144.99;62.50;52085.31;5062339;28;20239;-70
2021/06/29 09:51:08;;;;;;;297.63;287.73;;;;;;;-144.99;62.97;52073.06;5061703;28;20584;-70
2021/06/29 09:53:39;;;;;;;241.77;233.40;;;;;;;-144.99;63.03;52105.69;5062643;28;20211;-70
2021/06/29 09:56:11;;;;;;;35.33;33.73;;;;;;;-144.99;63.20;52046.56;5062083;28;20293;-70
2021/06/29 09:58:38;;;;;;;156.60;151.33;;;;;;;-144.99;63.71;52081.22;5061238;28;20599;-71
2021/06/29 10:01:05;;;;;;;168.50;162.63;;;;;;;-144.99;63.87;52064.91;5062100;28;20204;-68
2021/06/29 10:03:35;;;;;;;8.93;7.13;;;;;;;-144.99;63.73;52064.91;5061299;28;20234;-71
2021/06/29 10:06:09;;;;;;;18.63;17.40;;;;;;;-144.99;63.95;52077.16;5059299;28;20720;-71
2021/06/29 10:08:37;;;;;;;9.37;8.53;;;;;;;-144.99;64.48;52064.91;5060842;28;20356;-71
2021/06/29 10:11:25;;;;;;;57.43;55.20;;;;;;;-144.99;64.59;52073.06;5063642;28;20228;-71
2021/06/29 10:13:59;;;;;;;138.33;133.67;;;;;;;-144.99;65.12;52079.19;5062499;28;20853;-70
2021/06/29 10:16:27;;;;;;;192.87;186.30;;;;;;;-144.99;66.25;52077.16;5065517;28;20218;-70
2021/06/29 10:21:50;;;;;;;160.80;155.20;;;;;;;-144.99;67.91;52081.22;5047502;28;20294;-70
2021/06/29 10:24:20;;;;;;;103.27;99.53;;;;;;;-144.99;68.59;52073.06;5064552;28;20232;-71
2021/06/29 10:26:48;;;;;;;425.03;408.23;;;;;;;-144.99;68.16;52077.16;5065093;28;20213;-72
2021/06/29 10:29:16;;;;;;;425.47;408.77;;;;;;;-144.99;67.84;52093.44;5062196;28;20327;-70
2021/06/29 10:31:45;;;;;;;464.73;445.97;;;;;;;-144.99;67.52;52097.53;5065108;28;20217;-71
2021/06/29 10:34:13;;;;;;;553.10;527.27;;;;;;;-144.99;67.25;52085.31;5065973;28;20264;-71
2021/06/29 10:36:43;;;;;;;665.20;629.77;;;;;;;-144.99;68.14;52146.44;5065351;28;20582;-71
2021/06/29 10:39:17;;;;;;;620.23;588.50;;;;;;;-144.99;69.18;52126.06;5064652;28;20219;-71
2021/06/29 10:41:46;;;;;;;594.83;565.67;;;;;;;-144.99;69.57;52113.84;5064245;28;20217;-71
2021/06/29 10:44:15;;;;;;;640.63;607.37;;;;;;;-144.99;69.57;52069.00;5063500;28;20206;-70
2021/06/29 10:46:44;;;;;;;609.67;579.13;;;;;;;-144.99;68.93;52069.00;5060381;28;20741;-71
2021/06/29 10:49:38;;;;;;;673.60;637.17;;;;;;;-144.99;68.41;52117.91;5056608;28;20242;-70
2021/06/29 10:52:07;;;;;;;612.67;582.00;;;;;;;-144.99;68.26;52111.78;5060152;28;20292;-71
2021/06/29 10:54:46;;;;;;;641.00;607.53;;;;;;;-144.99;68.09;52077.16;5061248;28;20391;-71
2021/06/29 10:57:16;;;;;;;639.10;605.87;;;;;;;-144.99;68.50;52113.84;5061190;28;20246;-71
2021/06/29 10:59:46;;;;;;;641.67;608.03;;;;;;;-144.99;68.43;52095.50;5059343;28;20218;-71
2021/06/29 11:02:16;;;;;;;624.23;591.40;;;;;;;-144.99;69.32;52113.84;5062297;28;20209;-71
2021/06/29 11:04:54;;;;;;;647.60;613.50;;;;;;;-144.99;70.48;52081.22;5064903;28;20222;-70